Terminal Aerodrome Forecast
Issued by NWS

Home | Current Version | Previous Version | Text Only | Print | Product List | Glossary On
Versions: 1 2 3 4 5 6 7 8 9 10 11 12 13 14 15
000
FTUS43 KAPX 291401 AAA
TAFMBL
TAF AMD
KMBL 291401Z 2914/3012 20007KT P6SM SCT040 BKN080
     FM291700 26010G18KT P6SM SCT200
     FM292000 26012G22KT P6SM SKC
     FM300100 27007KT P6SM SKC
      AMD LTD TO CLD VIS AND WIND=

USA.gov is the U.S. government's official web portal to all federal, state and local government web resources and services.